createdAt,value
2017-02-19T00:00:02.762Z,13.04
2017-02-19T00:01:13.847Z,13.07
2017-02-19T00:02:23.254Z,13.04
2017-02-19T00:03:33.899Z,13.03
2017-02-19T00:04:43.212Z,13.01
2017-02-19T00:05:52.967Z,13.08
2017-02-19T00:07:03.158Z,13.04
2017-02-19T00:08:12.955Z,13.01
2017-02-19T00:09:22.275Z,13.04
2017-02-19T00:10:32.030Z,13.05
2017-02-19T00:11:41.782Z,13.1
2017-02-19T00:12:51.558Z,12.95
2017-02-19T00:14:01.813Z,13.01
2017-02-19T00:15:11.607Z,13.08
2017-02-19T00:16:21.812Z,13.11
2017-02-19T00:17:32.013Z,13.03
2017-02-19T00:18:41.326Z,12.95
2017-02-19T00:19:51.167Z,13.05
2017-02-19T00:21:00.483Z,13.07
2017-02-19T00:22:10.701Z,13.07
2017-02-19T00:23:20.022Z,13.05
2017-02-19T00:24:29.792Z,13.01
2017-02-19T00:25:40.052Z,12.97
2017-02-19T00:26:49.385Z,13.01
2017-02-19T00:27:58.691Z,13
2017-02-19T00:29:08.891Z,12.87
2017-02-19T00:30:18.673Z,13.05
2017-02-19T00:31:28.490Z,13
2017-02-19T00:32:38.264Z,12.96
2017-02-19T00:33:48.051Z,13.04
2017-02-19T00:34:58.241Z,12.97
2017-02-19T00:36:08.893Z,13.08
2017-02-19T00:37:18.256Z,12.92
2017-02-19T00:38:28.016Z,12.93
2017-02-19T00:39:38.655Z,13.01
2017-02-19T00:40:48.411Z,12.97
2017-02-19T00:41:58.595Z,12.93
2017-02-19T00:43:08.825Z,13
2017-02-19T00:44:19.447Z,12.96
2017-02-19T00:45:29.195Z,13.03
2017-02-19T00:46:38.946Z,12.97
2017-02-19T00:47:48.254Z,13.04
2017-02-19T00:48:58.061Z,13.01
2017-02-19T00:50:07.376Z,12.96
2017-02-19T00:51:17.118Z,12.92
2017-02-19T00:52:26.868Z,13.01
2017-02-19T00:53:36.636Z,12.96
2017-02-19T00:54:46.425Z,12.97
2017-02-19T00:55:56.181Z,13.01
2017-02-19T00:57:05.508Z,13.05
2017-02-19T00:58:16.157Z,13.01
2017-02-19T00:59:25.495Z,13
2017-02-19T01:00:34.855Z,12.87
2017-02-19T01:01:44.197Z,12.93
2017-02-19T01:02:53.954Z,13.01
2017-02-19T01:04:03.270Z,12.97
2017-02-19T01:05:13.906Z,12.97
2017-02-19T01:06:25.050Z,12.93
2017-02-19T01:07:35.673Z,12.95
2017-02-19T01:08:45.856Z,13.01
2017-02-19T01:09:55.597Z,12.97
2017-02-19T01:11:04.921Z,13
2017-02-19T01:12:14.744Z,13
2017-02-19T01:13:24.492Z,12.95
2017-02-19T01:14:34.254Z,12.96
2017-02-19T01:15:44.031Z,12.97
2017-02-19T01:16:54.224Z,12.93
2017-02-19T01:18:04.017Z,12.96
2017-02-19T01:19:13.757Z,12.93
2017-02-19T01:20:23.954Z,12.85
2017-02-19T01:21:33.724Z,12.86
2017-02-19T01:22:43.046Z,12.92
2017-02-19T01:23:52.867Z,12.96
2017-02-19T01:25:02.625Z,12.93
2017-02-19T01:26:12.381Z,12.96
2017-02-19T01:27:22.586Z,12.95
2017-02-19T01:28:32.779Z,13.01
2017-02-19T01:29:43.037Z,12.93
2017-02-19T01:30:52.347Z,12.95
2017-02-19T01:32:01.671Z,12.9
2017-02-19T01:33:10.991Z,12.9
2017-02-19T01:34:21.180Z,12.89
2017-02-19T01:35:30.969Z,12.93
2017-02-19T01:36:40.720Z,12.97
2017-02-19T01:37:51.383Z,12.85
2017-02-19T01:39:02.026Z,12.89
2017-02-19T01:40:12.666Z,12.87
2017-02-19T01:41:22.919Z,12.96
2017-02-19T01:42:32.677Z,12.95
2017-02-19T01:43:42.447Z,12.83
2017-02-19T01:44:51.768Z,12.89
2017-02-19T01:46:02.385Z,12.96
2017-02-19T01:47:12.185Z,12.86
2017-02-19T01:48:22.810Z,12.96
2017-02-19T01:49:33.461Z,12.89
2017-02-19T01:50:43.650Z,12.85
2017-02-19T01:51:53.402Z,12.86
2017-02-19T01:53:04.220Z,12.87
2017-02-19T01:54:13.968Z,12.87
2017-02-19T01:55:24.146Z,12.89
2017-02-19T01:56:33.514Z,12.86
2017-02-19T01:57:43.345Z,12.93
2017-02-19T01:58:53.702Z,12.87
2017-02-19T02:00:03.472Z,12.9
2017-02-19T02:01:13.231Z,12.87
2017-02-19T02:02:22.549Z,12.87
2017-02-19T02:03:32.343Z,12.87
2017-02-19T02:04:42.588Z,12.87
2017-02-19T02:05:52.345Z,12.92
2017-02-19T02:07:02.121Z,12.87
2017-02-19T02:08:12.315Z,12.82
2017-02-19T02:09:21.615Z,12.89
2017-02-19T02:10:31.425Z,12.9
2017-02-19T02:11:41.203Z,12.89
2017-02-19T02:12:51.399Z,12.87
2017-02-19T02:14:00.737Z,12.93
2017-02-19T02:15:10.054Z,12.83
2017-02-19T02:16:20.296Z,12.96
2017-02-19T02:17:29.607Z,12.9
2017-02-19T02:18:39.797Z,12.86
2017-02-19T02:19:50.459Z,12.83
2017-02-19T02:21:00.209Z,12.87
2017-02-19T02:22:10.018Z,12.87
2017-02-19T02:23:19.791Z,12.86
2017-02-19T02:24:29.535Z,12.82
2017-02-19T02:25:39.292Z,12.86
2017-02-19T02:26:49.061Z,12.78
2017-02-19T02:27:58.878Z,12.85
2017-02-19T02:29:09.509Z,12.87
2017-02-19T02:30:19.290Z,12.86
2017-02-19T02:31:29.055Z,12.78
2017-02-19T02:32:39.251Z,12.85
2017-02-19T02:33:49.055Z,12.79
2017-02-19T02:34:58.818Z,12.78
2017-02-19T02:36:08.576Z,12.86
2017-02-19T02:37:18.336Z,12.86
2017-02-19T02:38:28.069Z,12.86
2017-02-19T02:39:38.310Z,12.85
2017-02-19T02:40:48.496Z,12.87
2017-02-19T02:41:58.256Z,12.83
2017-02-19T02:43:08.013Z,12.78
2017-02-19T02:44:17.784Z,12.83
2017-02-19T02:45:28.045Z,12.93
2017-02-19T02:46:38.246Z,12.78
2017-02-19T02:47:48.482Z,12.89
2017-02-19T02:48:57.821Z,12.86
2017-02-19T02:50:07.573Z,12.78
2017-02-19T02:51:17.967Z,12.79
2017-02-19T02:52:27.288Z,12.87
2017-02-19T02:53:37.036Z,12.83
2017-02-19T02:54:48.099Z,12.74
2017-02-19T02:55:57.856Z,12.85
2017-02-19T02:57:07.252Z,12.79
2017-02-19T02:58:17.450Z,12.79
2017-02-19T02:59:27.198Z,12.79
2017-02-19T03:00:36.956Z,12.82
2017-02-19T03:01:46.260Z,12.83
2017-02-19T03:02:56.070Z,12.77
2017-02-19T03:04:05.812Z,12.92
2017-02-19T03:05:15.553Z,12.96
2017-02-19T03:06:25.304Z,12.86
2017-02-19T03:07:35.504Z,12.77
2017-02-19T03:08:44.886Z,12.77
2017-02-19T03:09:54.206Z,12.83
2017-02-19T03:11:03.527Z,12.78
2017-02-19T03:12:13.288Z,12.93
2017-02-19T03:13:22.615Z,12.87
2017-02-19T03:14:32.093Z,12.82
2017-02-19T03:15:41.863Z,12.9
2017-02-19T03:16:51.629Z,12.86
2017-02-19T03:18:00.950Z,12.87
2017-02-19T03:19:10.713Z,12.77
2017-02-19T03:20:20.496Z,12.79
2017-02-19T03:21:30.676Z,12.79
2017-02-19T03:22:40.421Z,12.82
2017-02-19T03:23:50.628Z,12.83
2017-02-19T03:25:00.821Z,13
2017-02-19T03:26:10.203Z,12.78
2017-02-19T03:27:19.980Z,12.82
2017-02-19T03:28:30.641Z,12.87
2017-02-19T03:29:40.400Z,12.82
2017-02-19T03:30:50.168Z,12.85
2017-02-19T03:31:59.640Z,12.82
2017-02-19T03:33:09.852Z,12.74
2017-02-19T03:34:19.201Z,12.77
2017-02-19T03:35:28.959Z,12.78
2017-02-19T03:36:38.260Z,12.83
2017-02-19T03:37:48.062Z,12.87
2017-02-19T03:38:58.268Z,12.86
2017-02-19T03:40:08.021Z,12.79
2017-02-19T03:41:17.786Z,12.79
2017-02-19T03:42:27.119Z,12.83
2017-02-19T03:43:36.948Z,12.74
2017-02-19T03:44:47.158Z,12.79
2017-02-19T03:45:56.485Z,12.79
2017-02-19T03:47:07.556Z,12.85
2017-02-19T03:48:17.749Z,12.89
2017-02-19T03:49:27.110Z,12.74
2017-02-19T03:50:36.459Z,12.78
2017-02-19T03:51:46.209Z,12.86
2017-02-19T03:52:55.540Z,12.79
2017-02-19T03:54:06.191Z,12.78
2017-02-19T03:55:16.422Z,12.74
2017-02-19T03:56:25.745Z,12.78
2017-02-19T03:57:35.962Z,12.79
2017-02-19T03:58:45.710Z,12.77
2017-02-19T03:59:55.479Z,12.78
2017-02-19T04:01:04.864Z,12.74
2017-02-19T04:02:15.099Z,12.78
2017-02-19T04:03:24.880Z,12.77
2017-02-19T04:04:34.217Z,12.83
2017-02-19T04:05:43.541Z,12.9
2017-02-19T04:06:53.360Z,12.85
2017-02-19T04:08:03.101Z,12.83
2017-02-19T04:09:12.861Z,12.87
2017-02-19T04:10:23.092Z,12.78
2017-02-19T04:11:33.745Z,12.78
2017-02-19T04:12:43.154Z,12.78
2017-02-19T04:13:52.487Z,12.85
2017-02-19T04:15:02.228Z,12.86
2017-02-19T04:16:11.534Z,12.77
2017-02-19T04:17:21.307Z,12.86
2017-02-19T04:18:31.098Z,12.77
2017-02-19T04:19:40.881Z,12.86
2017-02-19T04:20:50.203Z,12.78
2017-02-19T04:21:59.519Z,12.82
2017-02-19T04:23:09.725Z,12.78
2017-02-19T04:24:19.092Z,12.77
2017-02-19T04:25:28.889Z,12.79
2017-02-19T04:26:39.091Z,12.85
2017-02-19T04:27:49.285Z,12.78
2017-02-19T04:28:58.630Z,12.79
2017-02-19T04:30:08.462Z,12.74
2017-02-19T04:31:18.676Z,12.78
2017-02-19T04:32:28.422Z,12.82
2017-02-19T04:33:37.742Z,12.77
2017-02-19T04:34:47.488Z,12.87
2017-02-19T04:35:56.845Z,12.78
2017-02-19T04:37:06.605Z,12.87
2017-02-19T04:38:16.360Z,12.74
2017-02-19T04:39:26.139Z,12.86
2017-02-19T04:40:36.794Z,12.77
2017-02-19T04:41:46.617Z,12.77
2017-02-19T04:42:57.243Z,12.79
2017-02-19T04:44:07.888Z,12.85
2017-02-19T04:45:17.219Z,12.87
2017-02-19T04:46:26.543Z,12.82
2017-02-19T04:47:36.789Z,12.74
2017-02-19T04:48:46.981Z,12.82
2017-02-19T04:49:57.603Z,12.87
2017-02-19T04:51:07.803Z,12.78
2017-02-19T04:52:17.546Z,12.85
2017-02-19T04:53:26.940Z,12.96
2017-02-19T04:54:37.139Z,12.86
2017-02-19T04:55:47.762Z,12.82
2017-02-19T04:56:57.071Z,12.75
2017-02-19T04:58:07.270Z,12.85
2017-02-19T04:59:17.513Z,12.79
2017-02-19T05:00:27.266Z,12.74
2017-02-19T05:01:37.923Z,12.86
2017-02-19T05:02:47.668Z,12.82
2017-02-19T05:03:57.868Z,12.77
2017-02-19T05:05:07.675Z,12.75
2017-02-19T05:06:17.420Z,12.77
2017-02-19T05:07:26.729Z,12.82
2017-02-19T05:08:36.047Z,12.82
2017-02-19T05:09:45.792Z,12.79
2017-02-19T05:10:55.597Z,12.78
2017-02-19T05:12:05.784Z,12.93
2017-02-19T05:13:16.002Z,12.77
2017-02-19T05:14:26.208Z,12.85
2017-02-19T05:15:35.994Z,12.92
2017-02-19T05:16:45.380Z,12.77
2017-02-19T05:17:54.704Z,12.79
2017-02-19T05:19:04.065Z,12.9
2017-02-19T05:20:14.273Z,12.75
2017-02-19T05:21:24.035Z,12.89
2017-02-19T05:22:34.279Z,12.78
2017-02-19T05:23:44.049Z,12.86
2017-02-19T05:24:54.731Z,12.83
2017-02-19T05:26:04.080Z,12.75
2017-02-19T05:27:13.842Z,12.89
2017-02-19T05:28:23.642Z,12.86
2017-02-19T05:29:33.832Z,12.86
2017-02-19T05:30:43.149Z,12.85
2017-02-19T05:31:52.930Z,12.86
2017-02-19T05:33:03.561Z,12.82
2017-02-19T05:34:13.784Z,12.83
2017-02-19T05:35:23.534Z,12.86
2017-02-19T05:36:34.165Z,12.85
2017-02-19T05:37:44.367Z,12.89
2017-02-19T05:38:54.996Z,12.87
2017-02-19T05:40:05.470Z,12.96
2017-02-19T05:41:14.819Z,12.85
2017-02-19T05:42:25.005Z,12.82
2017-02-19T05:43:34.766Z,12.96
2017-02-19T05:44:44.513Z,12.93
2017-02-19T05:45:54.324Z,12.95
2017-02-19T05:47:04.069Z,12.95
2017-02-19T05:48:13.833Z,12.85
2017-02-19T05:49:23.606Z,12.93
2017-02-19T05:50:33.831Z,12.93
2017-02-19T05:51:43.670Z,12.89
2017-02-19T05:52:52.971Z,12.85
2017-02-19T05:54:02.761Z,12.86
2017-02-19T05:55:13.420Z,12.92
2017-02-19T05:56:22.743Z,12.83
2017-02-19T05:57:32.556Z,12.83
2017-02-19T05:58:42.305Z,12.86
2017-02-19T05:59:52.055Z,12.89
2017-02-19T06:01:02.260Z,12.92
2017-02-19T06:02:12.037Z,12.86
2017-02-19T06:03:21.853Z,12.89
2017-02-19T06:04:31.164Z,12.83
2017-02-19T06:05:40.905Z,12.83
2017-02-19T06:06:50.678Z,12.85
2017-02-19T06:08:00.871Z,12.93
2017-02-19T06:09:10.668Z,12.95
2017-02-19T06:10:20.865Z,12.95
2017-02-19T06:11:31.506Z,12.87
2017-02-19T06:12:41.294Z,12.92
2017-02-19T06:13:51.501Z,12.86
2017-02-19T06:15:01.316Z,12.83
2017-02-19T06:16:11.495Z,12.92
2017-02-19T06:17:21.248Z,12.92
2017-02-19T06:18:30.992Z,12.82
2017-02-19T06:19:41.229Z,12.93
2017-02-19T06:20:50.611Z,12.87
2017-02-19T06:21:59.949Z,12.92
2017-02-19T06:23:10.570Z,12.87
2017-02-19T06:24:20.799Z,12.89
2017-02-19T06:25:30.565Z,12.95
2017-02-19T06:26:40.813Z,12.97
2017-02-19T06:27:50.998Z,12.87
2017-02-19T06:29:00.754Z,12.85
2017-02-19T06:30:10.506Z,12.95
2017-02-19T06:31:20.271Z,12.92
2017-02-19T06:32:30.100Z,12.89
2017-02-19T06:33:40.297Z,12.85
2017-02-19T06:34:49.622Z,12.96
2017-02-19T06:35:59.375Z,12.86
2017-02-19T06:37:10.004Z,12.87
2017-02-19T06:38:20.250Z,12.93
2017-02-19T06:39:29.990Z,13
2017-02-19T06:40:39.798Z,12.9
2017-02-19T06:41:50.001Z,12.89
2017-02-19T06:43:00.214Z,12.89
2017-02-19T06:44:09.578Z,12.83
2017-02-19T06:45:19.325Z,12.89
2017-02-19T06:46:28.667Z,12.96
2017-02-19T06:47:38.458Z,12.96
2017-02-19T06:48:48.248Z,12.92
2017-02-19T06:49:58.490Z,12.89
2017-02-19T06:51:09.131Z,12.9
2017-02-19T06:52:18.892Z,12.79
2017-02-19T06:53:28.199Z,12.92
2017-02-19T06:54:38.818Z,12.87
2017-02-19T06:55:48.683Z,12.93
2017-02-19T06:56:58.472Z,12.97
2017-02-19T06:58:08.672Z,12.9
2017-02-19T06:59:18.861Z,12.96
2017-02-19T07:00:29.039Z,12.97
2017-02-19T07:01:39.293Z,12.95
2017-02-19T07:02:49.062Z,12.97
2017-02-19T07:03:58.811Z,12.97
2017-02-19T07:05:08.596Z,12.9
2017-02-19T07:06:17.920Z,12.97
2017-02-19T07:07:28.167Z,13
2017-02-19T07:08:37.935Z,12.93
2017-02-19T07:09:48.128Z,12.96
2017-02-19T07:10:57.877Z,13.04
2017-02-19T07:12:07.178Z,13.05
2017-02-19T07:13:17.867Z,13.05
2017-02-19T07:14:28.054Z,13
2017-02-19T07:15:37.363Z,12.97
2017-02-19T07:16:47.120Z,13.04
2017-02-19T07:17:57.313Z,13.08
2017-02-19T07:19:07.542Z,13
2017-02-19T07:20:16.856Z,13.01
2017-02-19T07:21:27.069Z,13.08
2017-02-19T07:22:36.385Z,13.12
2017-02-19T07:23:46.593Z,13.12
2017-02-19T07:24:57.708Z,13.07
2017-02-19T07:26:07.062Z,13.12
2017-02-19T07:27:16.379Z,13.17
2017-02-19T07:28:25.694Z,13.11
2017-02-19T07:29:35.450Z,13.12
2017-02-19T07:30:45.258Z,13.15
2017-02-19T07:31:55.033Z,13.15
2017-02-19T07:33:05.220Z,13.19
2017-02-19T07:34:14.993Z,13.12
2017-02-19T07:35:25.187Z,13.14
2017-02-19T07:36:34.576Z,13.22
2017-02-19T07:37:44.361Z,13.11
2017-02-19T07:38:54.147Z,13.19
2017-02-19T07:40:03.906Z,13.23
2017-02-19T07:41:14.093Z,13.23
2017-02-19T07:42:24.328Z,13.25
2017-02-19T07:43:34.519Z,13.25
2017-02-19T07:44:43.855Z,13.23
2017-02-19T07:45:54.056Z,13.29
2017-02-19T07:47:03.827Z,13.2
2017-02-19T07:48:13.628Z,13.38
2017-02-19T07:49:23.413Z,13.36
2017-02-19T07:50:33.626Z,13.3
2017-02-19T07:51:42.935Z,13.33
2017-02-19T07:52:52.700Z,13.2
2017-02-19T07:54:02.066Z,13.33
2017-02-19T07:55:11.803Z,13.3
2017-02-19T07:56:21.560Z,13.3
2017-02-19T07:57:31.335Z,13.39
2017-02-19T07:58:41.086Z,13.33
2017-02-19T07:59:51.332Z,13.3
2017-02-19T08:01:01.541Z,13.33
2017-02-19T08:02:11.302Z,13.38
2017-02-19T08:03:21.079Z,13.3
2017-02-19T08:04:30.393Z,13.32
2017-02-19T08:05:40.642Z,13.32
2017-02-19T08:06:50.420Z,13.28
2017-02-19T08:08:01.040Z,13.32
2017-02-19T08:09:10.364Z,13.3
2017-02-19T08:10:20.558Z,13.3
2017-02-19T08:11:29.928Z,13.45
2017-02-19T08:12:39.235Z,13.45
2017-02-19T08:13:48.998Z,13.41
2017-02-19T08:14:58.325Z,13.41
2017-02-19T08:16:08.076Z,13.39
2017-02-19T08:17:18.916Z,13.42
2017-02-19T08:18:28.666Z,13.41
2017-02-19T08:19:38.441Z,13.45
2017-02-19T08:20:47.776Z,13.45
2017-02-19T08:21:58.408Z,13.51
2017-02-19T08:23:08.228Z,13.49
2017-02-19T08:24:17.989Z,13.51
2017-02-19T08:25:27.754Z,13.52
2017-02-19T08:26:37.096Z,13.45
2017-02-19T08:27:47.304Z,13.48
2017-02-19T08:28:57.112Z,13.52
2017-02-19T08:30:06.870Z,13.48
2017-02-19T08:31:16.632Z,13.52
2017-02-19T08:32:25.948Z,13.52
2017-02-19T08:33:35.691Z,13.44
2017-02-19T08:34:46.035Z,13.51
2017-02-19T08:35:56.220Z,13.46
2017-02-19T08:37:05.982Z,13.54
2017-02-19T08:38:15.731Z,13.55
2017-02-19T08:39:25.475Z,13.57
2017-02-19T08:40:35.281Z,13.57
2017-02-19T08:41:45.462Z,13.55
2017-02-19T08:42:55.239Z,13.66
2017-02-19T08:44:05.437Z,13.6
2017-02-19T08:45:14.778Z,13.62
2017-02-19T08:46:24.146Z,13.63
2017-02-19T08:47:33.484Z,13.67
2017-02-19T08:48:42.814Z,13.66
2017-02-19T08:49:52.557Z,13.73
2017-02-19T08:51:02.324Z,13.73
2017-02-19T08:52:12.137Z,13.71
2017-02-19T08:53:21.878Z,13.7
2017-02-19T08:54:31.655Z,13.77
2017-02-19T08:55:41.416Z,13.7
2017-02-19T08:56:51.602Z,13.75
2017-02-19T08:58:01.387Z,13.84
2017-02-19T08:59:11.580Z,13.95
2017-02-19T09:00:20.889Z,13.89
2017-02-19T09:01:30.646Z,13.95
2017-02-19T09:02:40.407Z,13.92
2017-02-19T09:03:50.247Z,13.99
2017-02-19T09:05:00.864Z,14.09
2017-02-19T09:06:10.631Z,14.1
2017-02-19T09:07:20.390Z,14.12
2017-02-19T09:08:30.565Z,14.14
2017-02-19T09:09:39.988Z,14.18
2017-02-19T09:10:49.752Z,14.17
2017-02-19T09:11:59.093Z,14.21
2017-02-19T09:13:09.291Z,14.2
2017-02-19T09:14:20.386Z,14.2
2017-02-19T09:15:30.188Z,14.17
2017-02-19T09:16:39.962Z,14.17
2017-02-19T09:17:49.775Z,14.17
2017-02-19T09:18:59.968Z,14.25
2017-02-19T09:20:09.717Z,14.21
2017-02-19T09:21:19.539Z,14.25
2017-02-19T09:22:28.872Z,14.24
2017-02-19T09:23:38.624Z,14.27
2017-02-19T09:24:48.386Z,14.27
2017-02-19T09:25:58.187Z,14.35
2017-02-19T09:27:08.025Z,14.33
2017-02-19T09:28:17.333Z,14.32
2017-02-19T09:29:27.551Z,14.29
2017-02-19T09:30:37.736Z,14.4
2017-02-19T09:31:47.933Z,14.39
2017-02-19T09:32:58.182Z,14.39
2017-02-19T09:34:08.818Z,14.42
2017-02-19T09:35:19.011Z,14.46
2017-02-19T09:36:29.212Z,14.46
2017-02-19T09:37:38.967Z,14.42
2017-02-19T09:38:49.210Z,14.43
2017-02-19T09:39:59.878Z,14.45
2017-02-19T09:41:09.191Z,14.47
2017-02-19T09:42:18.952Z,14.52
2017-02-19T09:43:28.717Z,14.42
2017-02-19T09:44:38.534Z,14.43
2017-02-19T09:45:49.179Z,14.52
2017-02-19T09:46:59.388Z,14.52
2017-02-19T09:48:09.131Z,14.5
2017-02-19T09:49:18.434Z,14.43
2017-02-19T09:50:28.232Z,14.57
2017-02-19T09:51:37.569Z,14.57
2017-02-19T09:52:46.894Z,14.58
2017-02-19T09:53:56.671Z,14.57
2017-02-19T09:55:06.860Z,14.64
2017-02-19T09:56:16.245Z,14.62
2017-02-19T09:57:26.015Z,14.68
2017-02-19T09:58:35.324Z,14.62
2017-02-19T09:59:45.076Z,14.68
2017-02-19T10:00:54.835Z,14.77
2017-02-19T10:02:04.199Z,14.69
2017-02-19T10:03:13.517Z,14.8
2017-02-19T10:04:23.281Z,14.72
2017-02-19T10:05:32.591Z,14.84
2017-02-19T10:06:42.347Z,14.86
2017-02-19T10:07:52.158Z,14.88
2017-02-19T10:09:02.367Z,14.89
2017-02-19T10:10:12.139Z,14.83
2017-02-19T10:11:21.445Z,14.88
2017-02-19T10:12:31.223Z,14.88
2017-02-19T10:13:40.591Z,14.91
2017-02-19T10:14:50.352Z,14.89
2017-02-19T10:15:59.669Z,14.94
2017-02-19T10:17:08.991Z,14.96
2017-02-19T10:18:18.312Z,14.96
2017-02-19T10:19:28.128Z,14.98
2017-02-19T10:20:38.311Z,15.01
2017-02-19T10:21:48.067Z,14.92
2017-02-19T10:22:58.263Z,14.95
2017-02-19T10:24:08.450Z,15.06
2017-02-19T10:25:18.267Z,15.1
2017-02-19T10:26:28.056Z,15.02
2017-02-19T10:27:37.398Z,15.1
2017-02-19T10:28:46.739Z,15.06
2017-02-19T10:29:56.504Z,15.1
2017-02-19T10:31:07.180Z,15.2
2017-02-19T10:32:17.823Z,15.13
2017-02-19T10:33:27.584Z,15.14
2017-02-19T10:34:37.331Z,15.2
2017-02-19T10:35:48.402Z,15.1
2017-02-19T10:36:58.662Z,15.1
2017-02-19T10:38:07.987Z,15.09
2017-02-19T10:39:17.733Z,15.11
2017-02-19T10:40:27.944Z,15.06
2017-02-19T10:41:37.248Z,15.11
2017-02-19T10:42:47.595Z,15.07
2017-02-19T10:43:56.934Z,14.94
2017-02-19T10:45:06.679Z,15.02
2017-02-19T10:46:16.428Z,15.01
2017-02-19T10:47:25.744Z,15.03
2017-02-19T10:48:35.118Z,14.96
2017-02-19T10:49:45.332Z,14.96
2017-02-19T10:50:55.093Z,14.99
2017-02-19T10:52:05.730Z,15.01
2017-02-19T10:53:15.968Z,14.99
2017-02-19T10:54:25.781Z,14.95
2017-02-19T10:55:35.992Z,14.95
2017-02-19T10:56:46.183Z,14.94
2017-02-19T10:57:55.942Z,14.94
2017-02-19T10:59:07.000Z,14.88
2017-02-19T11:00:16.830Z,14.83
2017-02-19T11:01:26.586Z,14.84
2017-02-19T11:02:37.209Z,14.73
2017-02-19T11:03:46.534Z,14.73
2017-02-19T11:04:56.287Z,14.73
2017-02-19T11:06:06.567Z,14.75
2017-02-19T11:07:16.768Z,14.77
2017-02-19T11:08:26.545Z,14.65
2017-02-19T11:09:37.166Z,14.75
2017-02-19T11:10:47.369Z,14.68
2017-02-19T11:11:57.646Z,14.7
2017-02-19T11:13:07.422Z,14.7
2017-02-19T11:14:17.621Z,14.73
2017-02-19T11:15:26.950Z,14.72
2017-02-19T11:16:36.707Z,14.73
2017-02-19T11:17:47.588Z,14.68
2017-02-19T11:18:57.330Z,14.69
2017-02-19T11:20:06.651Z,14.72
2017-02-19T11:21:16.871Z,14.65
2017-02-19T11:22:27.079Z,14.7
2017-02-19T11:23:37.872Z,14.65
2017-02-19T11:24:47.639Z,14.65
2017-02-19T11:25:57.392Z,14.65
2017-02-19T11:27:06.730Z,14.65
2017-02-19T11:28:16.938Z,14.75
2017-02-19T11:29:26.751Z,14.72
2017-02-19T11:30:36.500Z,14.7
2017-02-19T11:31:46.259Z,14.75
2017-02-19T11:32:56.043Z,14.57
2017-02-19T11:34:07.112Z,14.7
2017-02-19T11:35:16.476Z,14.62
2017-02-19T11:36:26.247Z,14.69
2017-02-19T11:37:35.576Z,14.69
2017-02-19T11:38:45.765Z,14.65
2017-02-19T11:39:55.076Z,14.69
2017-02-19T11:41:05.027Z,14.7
2017-02-19T11:42:14.783Z,14.69
2017-02-19T11:43:24.981Z,14.65
2017-02-19T11:44:35.174Z,14.62
2017-02-19T11:45:44.499Z,14.68
2017-02-19T11:46:54.312Z,14.69
2017-02-19T11:48:04.074Z,14.64
2017-02-19T11:49:13.846Z,14.64
2017-02-19T11:50:23.604Z,14.68
2017-02-19T11:51:33.809Z,14.73
2017-02-19T11:52:43.611Z,14.7
2017-02-19T11:53:52.924Z,14.73
2017-02-19T11:55:02.252Z,14.69
2017-02-19T11:56:13.314Z,14.68
2017-02-19T11:57:22.631Z,14.7
2017-02-19T11:58:32.445Z,14.72
2017-02-19T11:59:43.085Z,14.65
2017-02-19T12:00:52.402Z,14.69
2017-02-19T12:02:01.732Z,14.7
2017-02-19T12:03:11.505Z,14.8
2017-02-19T12:04:21.321Z,14.68
2017-02-19T12:05:31.540Z,14.73
2017-02-19T12:06:41.304Z,14.75
2017-02-19T12:07:51.489Z,14.77
2017-02-19T12:09:00.831Z,14.68
2017-02-19T12:10:10.785Z,14.65
2017-02-19T12:11:20.972Z,14.72
2017-02-19T12:12:30.726Z,14.68
2017-02-19T12:13:40.468Z,14.72
2017-02-19T12:14:50.261Z,14.73
2017-02-19T12:16:00.954Z,14.72
2017-02-19T12:17:10.271Z,14.69
2017-02-19T12:18:20.028Z,14.73
2017-02-19T12:19:30.218Z,14.77
2017-02-19T12:20:39.533Z,14.68
2017-02-19T12:21:49.396Z,14.72
2017-02-19T12:22:59.613Z,14.64
2017-02-19T12:24:08.930Z,14.77
2017-02-19T12:25:18.251Z,14.8
2017-02-19T12:26:28.025Z,14.83
2017-02-19T12:27:37.382Z,14.68
2017-02-19T12:28:47.138Z,14.69
2017-02-19T12:29:57.320Z,14.73
2017-02-19T12:31:07.520Z,14.77
2017-02-19T12:32:17.305Z,14.69
2017-02-19T12:33:27.131Z,14.72
2017-02-19T12:34:36.883Z,14.69
2017-02-19T12:35:46.698Z,14.75
2017-02-19T12:36:56.459Z,14.65
2017-02-19T12:38:06.220Z,14.72
2017-02-19T12:39:16.009Z,14.6
2017-02-19T12:40:25.311Z,14.6
2017-02-19T12:41:35.084Z,14.58
2017-02-19T12:42:45.285Z,14.57
2017-02-19T12:43:54.650Z,14.64
2017-02-19T12:45:04.562Z,14.58
2017-02-19T12:46:13.868Z,14.57
2017-02-19T12:47:24.058Z,14.52
2017-02-19T12:48:33.381Z,14.52
2017-02-19T12:49:43.114Z,14.5
2017-02-19T12:50:53.805Z,14.42
2017-02-19T12:52:03.992Z,14.42
2017-02-19T12:53:13.307Z,14.42
2017-02-19T12:54:22.624Z,14.4
2017-02-19T12:55:32.841Z,14.45
2017-02-19T12:56:42.207Z,14.45
2017-02-19T12:57:52.408Z,14.39
2017-02-19T12:59:03.040Z,14.46
2017-02-19T13:00:12.795Z,14.46
2017-02-19T13:01:22.131Z,14.46
2017-02-19T13:02:31.964Z,14.43
2017-02-19T13:03:42.158Z,14.47
2017-02-19T13:04:51.923Z,14.37
2017-02-19T13:06:01.675Z,14.36
2017-02-19T13:07:11.425Z,14.39
2017-02-19T13:08:21.675Z,14.39
2017-02-19T13:09:31.427Z,14.35
2017-02-19T13:10:40.743Z,14.42
2017-02-19T13:11:50.942Z,14.45
2017-02-19T13:13:00.696Z,14.42
2017-02-19T13:14:10.515Z,14.39
2017-02-19T13:15:20.718Z,14.47
2017-02-19T13:16:30.035Z,14.45
2017-02-19T13:17:39.340Z,14.46
2017-02-19T13:18:48.645Z,14.42
2017-02-19T13:19:58.457Z,14.37
2017-02-19T13:21:09.106Z,14.42
2017-02-19T13:22:18.879Z,14.37
2017-02-19T13:23:30.382Z,14.39
2017-02-19T13:24:39.695Z,14.4
2017-02-19T13:25:49.200Z,14.28
2017-02-19T13:26:58.530Z,14.35
2017-02-19T13:28:08.297Z,14.24
2017-02-19T13:29:18.080Z,14.29
2017-02-19T13:30:28.273Z,14.22
2017-02-19T13:31:38.085Z,14.35
2017-02-19T13:32:48.263Z,14.36
2017-02-19T13:33:58.014Z,14.25
2017-02-19T13:35:07.336Z,14.27
2017-02-19T13:36:17.543Z,14.24
2017-02-19T13:37:26.940Z,14.32
2017-02-19T13:38:37.153Z,14.37
2017-02-19T13:39:46.914Z,14.33
2017-02-19T13:40:57.106Z,14.35
2017-02-19T13:42:07.721Z,14.27
2017-02-19T13:43:17.521Z,14.4
2017-02-19T13:44:27.272Z,14.33
2017-02-19T13:45:36.622Z,14.35
2017-02-19T13:46:46.393Z,14.39
2017-02-19T13:47:56.147Z,14.28
2017-02-19T13:49:06.396Z,14.37
2017-02-19T13:50:16.609Z,14.35
2017-02-19T13:51:26.830Z,14.33
2017-02-19T13:52:36.586Z,14.28
2017-02-19T13:53:46.361Z,14.29
2017-02-19T13:54:56.621Z,14.17
2017-02-19T13:56:06.817Z,14.17
2017-02-19T13:57:16.592Z,14.18
2017-02-19T13:58:26.812Z,14.15
2017-02-19T13:59:37.451Z,14.2
2017-02-19T14:00:46.812Z,14.14
2017-02-19T14:01:56.125Z,14.17
2017-02-19T14:03:05.878Z,14.14
2017-02-19T14:04:15.623Z,14.1
2017-02-19T14:05:25.821Z,14.1
2017-02-19T14:06:36.536Z,14.04
2017-02-19T14:07:46.296Z,14.02
2017-02-19T14:08:55.612Z,14
2017-02-19T14:10:05.377Z,14.1
2017-02-19T14:11:14.710Z,14.1
2017-02-19T14:12:24.550Z,14.14
2017-02-19T14:13:34.329Z,14.12
2017-02-19T14:14:44.548Z,14.1
2017-02-19T14:15:54.746Z,14.07
2017-02-19T14:17:04.936Z,13.99
2017-02-19T14:18:14.305Z,14.1
2017-02-19T14:19:24.943Z,14.07
2017-02-19T14:20:34.692Z,14.07
2017-02-19T14:21:44.024Z,14.14
2017-02-19T14:22:53.775Z,14.1
2017-02-19T14:24:03.167Z,14.12
2017-02-19T14:25:13.372Z,14.03
2017-02-19T14:26:23.140Z,14.04
2017-02-19T14:27:33.337Z,14.03
2017-02-19T14:28:43.960Z,13.99
2017-02-19T14:29:54.196Z,14
2017-02-19T14:31:04.399Z,14.02
2017-02-19T14:32:14.150Z,13.96
2017-02-19T14:33:24.332Z,14
2017-02-19T14:34:34.546Z,14.03
2017-02-19T14:35:44.791Z,14.04
2017-02-19T14:36:54.554Z,13.99
2017-02-19T14:38:04.770Z,13.88
2017-02-19T14:39:14.958Z,13.89
2017-02-19T14:40:25.152Z,13.92
2017-02-19T14:41:34.965Z,13.89
2017-02-19T14:42:44.762Z,13.92
2017-02-19T14:43:54.090Z,13.87
2017-02-19T14:45:04.713Z,13.97
2017-02-19T14:46:14.033Z,13.92
2017-02-19T14:47:24.711Z,13.88
2017-02-19T14:48:34.500Z,13.99
2017-02-19T14:49:44.285Z,13.87
2017-02-19T14:50:54.053Z,13.82
2017-02-19T14:52:04.707Z,13.88
2017-02-19T14:53:14.519Z,13.96
2017-02-19T14:54:25.174Z,13.88
2017-02-19T14:55:34.955Z,13.92
2017-02-19T14:56:44.720Z,13.85
2017-02-19T14:57:54.047Z,13.77
2017-02-19T14:59:03.859Z,13.85
2017-02-19T15:00:13.166Z,13.77
2017-02-19T15:01:22.477Z,13.85
2017-02-19T15:02:32.674Z,13.81
2017-02-19T15:03:42.027Z,13.81